Jogging de Kin (Aywaille)
Jogging de Kin (Aywaille) 28/04/2017 - 13 km
Mise à jour le : 28/04/2017 à 21:15
Classement définitif, aucune correction possible
Place Nom Prénom Dossard Temps Vitesse Allure Place. Cat. Catégorie
1 CASTERMANS VINCENT 96 50:21 15,49 3:52 1 Séniors
2 CHARNIER CHRISTIAN 890 50:27 15,46 3:52 2 Séniors
3 LAMBOTTE BENOIT 905 50:46 15,36 3:54 3 Séniors
4 CASTERMANS MICHAEL 95 52:15 14,92 4:01 4 Séniors
5 BAAR GRÉGORY 49 53:00 14,72 4:04 5 Séniors
6 DUBOIS SAMUEL 246 54:36 14,28 4:12 6 Séniors
7 BURNOTTE FLORIAN 810 54:57 14,19 4:13 7 Séniors
8 BAUDINET JEAN-PIERRE 892 55:49 13,97 4:17 1 Vétérans 1
9 DEMONCEAU JEAN LUC 157 56:59 13,68 4:23 1 Vétérans 2
10 GEORIS SEBASTIEN 883 57:24 13,59 4:24 8 Séniors
11 VROMEN PIERRE - YVES 675 57:42 13,51 4:26 9 Séniors
12 PALM GUILLAUME 926 57:47 13,50 4:26 10 Séniors
13 DEFECHEREUX CEDRIC 927 58:49 13,26 4:31 2 Vétérans 1
14 DELVAUX GARY 208 59:35 13,09 4:35 11 Séniors
15 TILKIN MATTHIEU 897 59:52 13,03 4:36 12 Séniors
16 LEJEUNE PHILIPPE 928 59:59 13,00 4:36 2 Vétérans 2
17 DELREZ DIDIER 203 1:00:02 12,99 4:37 3 Vétérans 2
18 PRINS TIJMEN 864 1:00:15 12,94 4:38 13 Séniors
19 NEUTELEERS ERIC 908 1:00:35 12,87 4:39 4 Vétérans 2
20 STRAUVEN MARTIN 873 1:01:17 12,72 4:42 14 Séniors
21 LEBER MATHIEU 930 1:01:19 12,72 4:43 15 Séniors
22 MOUTON ALEXANDRE 854 1:01:24 12,70 4:43 16 Séniors
23 WILKIN DENIS 878 1:01:48 12,62 4:45 17 Séniors
24 VANHULST BENOÎT 662 1:02:17 12,52 4:47 18 Séniors
25 RENSON PIERRE 946 1:02:44 12,43 4:49 19 Séniors
26 ELKINK WIECHER 828 1:02:46 12,43 4:49 20 Séniors
27 PIRONT BEN 885 1:02:47 12,42 4:49 21 Séniors
28 LIFRANGE JEROME 847 1:03:13 12,34 4:51 22 Séniors
29 OLEFS ANTONINO 891 1:03:16 12,33 4:52 23 Séniors
30 DEBROUX BERTRAND 821 1:03:35 12,27 4:53 1 Espoirs Garçons
31 MOLLERS SEBASTIEN 887 1:03:39 12,25 4:53 24 Séniors
32 DEHARD MICHAEL 932 1:03:41 12,25 4:53 3 Vétérans 1
33 SEVRIN FREDERIC 915 1:03:53 12,21 4:54 25 Séniors
34 AGNOLI PIERRE 40 1:04:19 12,13 4:56 26 Séniors
35 BINARD MARC 806 1:04:26 12,10 4:57 1 Vétérans 3
36 CANALES ALBERTO 130 1:04:40 12,06 4:58 2 Vétérans 3
37 MARGOLLIES YVES 942 1:04:44 12,05 4:58 5 Vétérans 2
38 VANDEN BULCK CHRISTOPHE 423 1:04:46 12,04 4:58 27 Séniors
39 LIEGEOIS MARC 303 1:04:48 12,04 4:59 6 Vétérans 2
40 DEBROUX TANGUY 822 1:05:32 11,90 5:02 2 Espoirs Garçons
41 WINANDY GUY 462 1:05:42 11,87 5:03 3 Vétérans 3
42 JEUSETTE STEPHANE 899 1:06:17 11,77 5:05 28 Séniors
43 FONTAINE SERGE 291 1:06:22 11,75 5:06 4 Vétérans 1
44 FRANCOIS THIBAUT 955 1:06:37 11,71 5:07 29 Séniors
45 ANDRE RENE 47 1:06:44 11,69 5:08 7 Vétérans 2
46 MORAY ADRIEN 852 1:06:54 11,66 5:08 30 Séniors
47 DELVAUX DAVID 825 1:06:56 11,65 5:08 31 Séniors
48 LIBERK DAVID 913 1:07:01 11,64 5:09 5 Vétérans 1
49 ROSU MELANIE 944 1:07:17 11,59 5:10 1 Ainées 1
50 CUPPENS BENOIT 818 1:07:38 11,53 5:12 6 Vétérans 1
51 BELEAU VIRGINIE 909 1:07:47 11,50 5:12 1 Dames
52 TOUETTE PIERRE 937 1:08:08 11,45 5:14 32 Séniors
53 MINGUET OLIVIER 851 1:08:19 11,42 5:15 33 Séniors
54 PIRSON LAURENT 862 1:08:30 11,39 5:16 34 Séniors
55 MONSEUR JULIEN 898 1:08:33 11,38 5:16 35 Séniors
56 WESTER KLAES 904 1:08:42 11,35 5:17 36 Séniors
57 SAUVAGE PIERRE 869 1:08:44 11,35 5:17 37 Séniors
58 SLUYSMANS MARTIN 392 1:08:46 11,34 5:17 8 Vétérans 2
59 ROSU ADELINE 945 1:08:52 11,33 5:17 2 Dames
60 SCHOONBROODT BENOIT 3 1:08:53 11,32 5:17 7 Vétérans 1
61 DIPAOLO ALEXANDRE 938 1:08:58 11,31 5:18 8 Vétérans 1
62 VAN HAREN JEAN-CHARLES 874 1:09:01 11,30 5:18 38 Séniors
63 MOYSE VINCENT 855 1:09:03 11,29 5:18 39 Séniors
64 DECHENE LIONEL 952 1:09:10 11,27 5:19 40 Séniors
65 LEURQUIN MIKE 884 1:09:15 11,26 5:19 3 Espoirs Garçons
66 VAN DEN BERG BART 880 1:09:17 11,26 5:19 41 Séniors
67 INCONNU INCONNU 0 1:09:17 11,26 5:19 0
68 KORTINK JORRIT 843 1:09:19 11,25 5:19 42 Séniors
69 PEETERS RENAUD 914 1:09:20 11,25 5:20 9 Vétérans 1
70 DAMBLON PATRICK 167 1:09:23 11,24 5:20 9 Vétérans 2
71 PIERRE FABIAN 534 1:09:27 11,23 5:20 10 Vétérans 1
72 TILKIN SANS PRENOM 916 1:09:46 11,18 5:22 43 Séniors
73 GOMZE MICHEL 5 1:09:48 11,17 5:22 10 Vétérans 2
74 COLLARD SERGE 145 1:09:50 11,17 5:22 11 Vétérans 1
75 BINOT JEAN-LOUIS 807 1:09:51 11,16 5:22 11 Vétérans 2
76 BLANDIAUX OLIVIER 87 1:09:54 11,16 5:22 12 Vétérans 1
77 DE RIDDER OLIVIER 174 1:10:03 11,13 5:23 44 Séniors
78 LUX JEROME 931 1:10:21 11,09 5:24 45 Séniors
79 GEORIS EVELYNE 835 1:10:30 11,06 5:25 2 Ainées 1
80 HILDERSON LUC 611 1:10:32 11,06 5:25 4 Vétérans 3
81 DEGUELDRE VINCENT 513 1:12:02 10,83 5:32 46 Séniors
82 AZAOUAJ KARIM 801 1:12:07 10,81 5:32 47 Séniors
83 DEFLANDRE GILLES 823 1:12:37 10,74 5:35 48 Séniors
84 LEJEUNE DAVID 553 1:12:44 10,72 5:35 13 Vétérans 1
85 REMY ROGER 920 1:12:46 10,72 5:35 12 Vétérans 2
86 LOUVIAUX CINDY 464 1:12:48 10,71 5:36 3 Ainées 1
87 DOSSERAY VINCENT 907 1:12:50 10,71 5:36 49 Séniors
88 PIRARD CATHERINE 895 1:13:01 10,68 5:37 4 Ainées 1
89 DEFECHEREUX FABIAN 896 1:13:03 10,68 5:37 14 Vétérans 1
90 VEYS GRÉGORY 875 1:13:08 10,66 5:37 50 Séniors
91 HOURLAY FRÉDÉRIC 840 1:13:15 10,65 5:38 15 Vétérans 1
92 SOLHEID LIONEL 925 1:13:16 10,64 5:38 16 Vétérans 1
93 CLOOS JEAN MARIE 923 1:13:23 10,63 5:38 51 Séniors
94 DAVID VINCENT 886 1:13:24 10,62 5:38 17 Vétérans 1
95 PIROTTE BERNARD 953 1:13:26 10,62 5:38 52 Séniors
96 COMPÈRE LOUISE 815 1:13:28 10,61 5:39 1 Espoirs Filles
97 SALVATORI FREDERIC 935 1:13:33 10,60 5:39 18 Vétérans 1
98 HUBIN FRANÇOIS 841 1:13:43 10,58 5:40 19 Vétérans 1
99 NSUNDA BATISTA 956 1:13:58 10,54 5:41 53 Séniors
100 MARCHAL XAVIER 922 1:14:00 10,54 5:41 13 Vétérans 2
101 XHIGNESSE KEVIN 933 1:14:02 10,53 5:41 54 Séniors
102 BIBERSZTEIN STEFAN 951 1:14:08 10,52 5:42 14 Vétérans 2
103 THONON RAPHAEL 911 1:14:10 10,52 5:42 20 Vétérans 1
104 GEORGES SEBASTIEN 934 1:14:12 10,51 5:42 55 Séniors
105 RENNOTTE RAPHAEL 715 1:14:15 10,50 5:42 21 Vétérans 1
106 HOCK MICHAEL 468 1:14:20 10,49 5:43 56 Séniors
107 FLAMAND MICHAEL 257 1:14:23 10,49 5:43 57 Séniors
108 BIEUVLET JEROME 943 1:14:27 10,48 5:43 58 Séniors
109 STELLA JEROME 929 1:14:31 10,47 5:43 59 Séniors
110 DEWULF NOELLE 827 1:14:33 10,46 5:44 5 Ainées 1
111 VOGELEER MICHEL 876 1:14:47 10,43 5:45 22 Vétérans 1
112 CORBESIER LAURENT 816 1:14:52 10,42 5:45 23 Vétérans 1
113 PÉTRON JONATHAN 860 1:14:59 10,40 5:46 60 Séniors
114 HERZET MIREILLE 457 1:15:05 10,39 5:46 1 Ainées 3
115 MASY DANIEL 948 1:15:16 10,36 5:47 15 Vétérans 2
116 CHARLIER ALAIN 906 1:15:41 10,30 5:49 5 Vétérans 3
117 CANEVE CHRISTOPHE 813 1:16:01 10,26 5:50 61 Séniors
118 FRANCK LIONEL 831 1:16:58 10,13 5:55 62 Séniors
119 TOMBEUX CHRISTOPHE 950 1:17:06 10,12 5:55 63 Séniors
120 TERF MICHEL 486 1:17:13 10,10 5:56 16 Vétérans 2
121 BREUER CLAIRE 83 1:17:34 10,05 5:58 6 Ainées 1
122 RENARD JÉRÔME 866 1:17:46 10,03 5:58 64 Séniors
123 LECLERCQ DOMINIQUE 902 1:17:48 10,03 5:59 17 Vétérans 2
124 GALIOTTO XAVIER 833 1:17:54 10,01 5:59 65 Séniors
125 SCHNEIDER PHILIPPE 605 1:18:29 9,94 6:02 24 Vétérans 1
126 NIBUS FELICIEN 489 1:18:53 9,89 6:04 66 Séniors
127 HENSGENS JAN 954 1:19:56 9,76 6:08 6 Vétérans 3
128 PHILIPPART FABIAN 861 1:20:19 9,71 6:10 25 Vétérans 1
129 DEMONCEAU JOSE 893 1:20:19 9,71 6:10 18 Vétérans 2
130 CORMAN MICHAEL 152 1:20:36 9,68 6:12 67 Séniors
131 DENIS GUY 826 1:20:39 9,67 6:12 7 Vétérans 3
132 BREDO RAPHAEL 808 1:20:40 9,67 6:12 26 Vétérans 1
133 BREULS HÉLÈNE 809 1:20:42 9,66 6:12 3 Dames
134 CARPENTIER THIERRY 939 1:20:46 9,66 6:12 68 Séniors
135 KAIRIS CECILE 842 1:20:52 9,64 6:13 7 Ainées 1
136 DELWAIDE ANNE 209 1:20:54 9,64 6:13 2 Ainées 3
137 WEBER PHILIPPE 889 1:20:57 9,63 6:13 69 Séniors
138 FOULON DANIEL 830 1:21:22 9,59 6:15 19 Vétérans 2
139 BECO CELIA 804 1:21:27 9,58 6:15 4 Dames
140 SCHONBRODT ELODIE 870 1:21:32 9,57 6:16 5 Dames
141 BEAULIEU LAURE 803 1:21:34 9,56 6:16 6 Dames
142 PERROT EMILE 858 1:21:37 9,56 6:16 20 Vétérans 2
143 SCHONBRODT SOLÈNE 871 1:21:39 9,55 6:16 7 Dames
144 GERKENS DANIEL 936 1:21:40 9,55 6:16 8 Vétérans 3
145 DELREZ SANDRA 238 1:21:52 9,53 6:17 1 Ainées 2
146 SIEBENBOUR MICHEL 629 1:21:54 9,52 6:18 27 Vétérans 1
147 SCHOLZEN LAURENT 379 1:22:15 9,48 6:19 28 Vétérans 1
148 CLOOS OLIVIER 924 1:22:17 9,48 6:19 70 Séniors
149 LIZEN MICHEL 900 1:22:19 9,47 6:19 21 Vétérans 2
150 MARCHAL AMAURY 477 1:22:39 9,44 6:21 71 Séniors
151 MUERMANS GUY 856 1:23:23 9,35 6:24 22 Vétérans 2
152 DUBLET SERGE 231 1:23:38 9,33 6:26 9 Vétérans 3
153 MÉLOT VÉRONIQUE 850 1:24:21 9,25 6:29 2 Ainées 2
154 DELVAUX SAMUEL 917 1:24:23 9,24 6:29 72 Séniors
155 MARCHETTINI LIONEL 903 1:24:24 9,24 6:29 73 Séniors
156 MINGUET CHRISTEL 918 1:24:53 9,19 6:31 8 Dames
157 KUPPER ROLAND 844 1:25:45 9,10 6:35 74 Séniors
158 BANNEUX CHRISTELLE 802 1:25:54 9,08 6:36 8 Ainées 1
159 BASTIN PATRICK 919 1:25:56 9,08 6:36 10 Vétérans 3
160 PEFFER JEAN-PIERRE 857 1:25:58 9,07 6:36 29 Vétérans 1
161 QUÉTIN LAURA 865 1:26:02 9,06 6:37 9 Dames
162 ROGISTER MARIEVE 867 1:26:13 9,05 6:37 10 Dames
163 JEMINE XAVIER 339 1:26:25 9,03 6:38 23 Vétérans 2
164 HEKLINGER SYLVAIN 837 1:26:32 9,01 6:39 30 Vétérans 1
165 BERTRANG JULIEN 79 1:28:06 8,85 6:46 1 Vétérans 4
166 STOCKART GENEVIEVE 921 1:28:17 8,83 6:47 9 Ainées 1
167 JADIN GERALDINE 901 1:28:17 8,83 6:47 3 Ainées 2
168 AGUSTA SOFIA 881 1:28:35 8,80 6:48 10 Ainées 1
169 HELLA JEAN-MICHEL 838 1:28:46 8,79 6:49 24 Vétérans 2
170 COLLIGNON MAURICE 894 1:29:03 8,76 6:51 0 H Sans Cat
171 BRAGARD EDMEE 721 1:29:46 8,69 6:54 4 Ainées 2
172 DEFLANDRE JEAN MARIE 146 1:29:46 8,69 6:54 25 Vétérans 2
173 MAGOTTEAUX BORIS 849 1:30:20 8,63 6:56 75 Séniors
174 BURZIC SELMA 811 1:30:24 8,63 6:57 11 Dames
175 WARNY JEAN-FRANÇOIS 877 1:31:48 8,50 7:03 31 Vétérans 1
176 LUTHERS BENOIT 848 1:31:48 8,50 7:03 32 Vétérans 1
177 HERMIE SANDRINE 839 1:32:02 8,47 7:04 5 Ainées 2
178 LIBIOUL PAUL ETIENNE 910 1:32:27 8,44 7:06 76 Séniors
179 WILLEM FANNY 949 1:34:43 8,23 7:17 12 Dames
180 LE BOULENGE DELPHINE 947 1:35:00 8,21 7:18 13 Dames
181 BOLETTE GREGORY 888 1:35:48 8,14 7:22 77 Séniors
182 CZORNIAK SARAH 819 1:36:08 8,11 7:23 14 Dames
183 FAGNOULLE CÉLINE 829 1:36:40 8,07 7:26 15 Dames
184 DMITRIEVA NATALIA 912 1:37:05 8,03 7:28 11 Ainées 1
185 VERCAMMEN MICHEL 427 1:37:16 8,02 7:28 33 Vétérans 1
186 PATRIARCA TIZIANA 338 1:37:43 7,98 7:31 6 Ainées 2
187 PATRIARCA CATIA 336 1:37:45 7,98 7:31 12 Ainées 1
188 CALLEBAUT MARIE CATHERINE 812 1:39:45 7,82 7:40 7 Ainées 2
189 FRANCOIS MARGOT 832 1:42:14 7,63 7:51 16 Dames
190 MAQUINAY FELICIEN 475 1:44:39 7,45 8:03 11 Vétérans 3
191 BÉMELMANS VANESSA 805 1:45:47 7,37 8:08 17 Dames
192 GRANDJEAN ANNICK 836 1:49:26 7,13 8:25 13 Ainées 1
193 PLEYERS CHRISTELLE 863 1:51:37 6,99 8:35 18 Dames
194 LAGOUNE FRÉDÉRIC 845 1:51:40 6,98 8:35 78 Séniors
195 LEMPEREUR PATRICE 446 1:51:45 6,98 8:35 12 Vétérans 3